sensor_id;sensor_type;location;lat;lon;timestamp;P1;durP1;ratioP1;P2;durP2;ratioP2
18172;SDS011;9211;48.818;9.312;2023-02-10T00:01:04;66.88;;;31.33;;
18172;SDS011;9211;48.818;9.312;2023-02-10T00:03:32;70.28;;;33.08;;
18172;SDS011;9211;48.818;9.312;2023-02-10T00:06:00;68.63;;;30.70;;
18172;SDS011;9211;48.818;9.312;2023-02-10T00:08:27;68.50;;;31.33;;
18172;SDS011;9211;48.818;9.312;2023-02-10T00:10:57;68.82;;;31.63;;
18172;SDS011;9211;48.818;9.312;2023-02-10T00:13:24;68.03;;;31.58;;
18172;SDS011;9211;48.818;9.312;2023-02-10T00:15:52;70.00;;;31.20;;
18172;SDS011;9211;48.818;9.312;2023-02-10T00:18:20;67.20;;;30.85;;
18172;SDS011;9211;48.818;9.312;2023-02-10T00:20:47;67.93;;;30.77;;
18172;SDS011;9211;48.818;9.312;2023-02-10T00:23:14;64.23;;;31.07;;
18172;SDS011;9211;48.818;9.312;2023-02-10T00:25:41;65.65;;;31.00;;
18172;SDS011;9211;48.818;9.312;2023-02-10T00:28:09;66.63;;;30.60;;
18172;SDS011;9211;48.818;9.312;2023-02-10T00:30:37;62.55;;;29.50;;
18172;SDS011;9211;48.818;9.312;2023-02-10T00:33:04;61.50;;;29.60;;
18172;SDS011;9211;48.818;9.312;2023-02-10T00:35:33;62.28;;;29.40;;
18172;SDS011;9211;48.818;9.312;2023-02-10T00:38:00;64.40;;;29.90;;
18172;SDS011;9211;48.818;9.312;2023-02-10T00:40:27;62.22;;;29.23;;
18172;SDS011;9211;48.818;9.312;2023-02-10T00:42:54;62.03;;;29.63;;
18172;SDS011;9211;48.818;9.312;2023-02-10T00:45:22;63.22;;;30.35;;
18172;SDS011;9211;48.818;9.312;2023-02-10T00:47:49;63.75;;;29.80;;
18172;SDS011;9211;48.818;9.312;2023-02-10T00:50:16;61.28;;;29.42;;
18172;SDS011;9211;48.818;9.312;2023-02-10T00:52:43;67.00;;;29.07;;
18172;SDS011;9211;48.818;9.312;2023-02-10T00:55:10;65.10;;;29.65;;
18172;SDS011;9211;48.818;9.312;2023-02-10T00:57:37;64.82;;;30.38;;
18172;SDS011;9211;48.818;9.312;2023-02-10T01:00:04;64.35;;;30.05;;
18172;SDS011;9211;48.818;9.312;2023-02-10T01:02:34;66.30;;;30.05;;
18172;SDS011;9211;48.818;9.312;2023-02-10T01:05:01;61.13;;;29.45;;
18172;SDS011;9211;48.818;9.312;2023-02-10T01:07:28;63.53;;;29.52;;
18172;SDS011;9211;48.818;9.312;2023-02-10T01:09:55;60.43;;;29.20;;
18172;SDS011;9211;48.818;9.312;2023-02-10T01:12:23;63.07;;;29.23;;
18172;SDS011;9211;48.818;9.312;2023-02-10T01:14:50;60.67;;;29.42;;
18172;SDS011;9211;48.818;9.312;2023-02-10T01:17:17;60.20;;;28.85;;
18172;SDS011;9211;48.818;9.312;2023-02-10T01:19:45;63.22;;;30.08;;
18172;SDS011;9211;48.818;9.312;2023-02-10T01:22:16;62.58;;;29.20;;
18172;SDS011;9211;48.818;9.312;2023-02-10T01:24:43;63.40;;;29.55;;
18172;SDS011;9211;48.818;9.312;2023-02-10T01:27:10;62.25;;;29.35;;
18172;SDS011;9211;48.818;9.312;2023-02-10T01:29:38;61.53;;;29.15;;
18172;SDS011;9211;48.818;9.312;2023-02-10T01:32:05;64.57;;;29.08;;
18172;SDS011;9211;48.818;9.312;2023-02-10T01:34:35;61.72;;;29.05;;
18172;SDS011;9211;48.818;9.312;2023-02-10T01:37:05;61.08;;;29.35;;
18172;SDS011;9211;48.818;9.312;2023-02-10T01:39:32;64.73;;;29.50;;
18172;SDS011;9211;48.818;9.312;2023-02-10T01:41:59;65.72;;;30.63;;
18172;SDS011;9211;48.818;9.312;2023-02-10T01:47:30;61.92;;;28.95;;
18172;SDS011;9211;48.818;9.312;2023-02-10T01:49:57;61.85;;;29.40;;
18172;SDS011;9211;48.818;9.312;2023-02-10T01:52:26;59.97;;;28.25;;
18172;SDS011;9211;48.818;9.312;2023-02-10T01:54:55;61.23;;;29.27;;
18172;SDS011;9211;48.818;9.312;2023-02-10T01:57:26;63.20;;;29.25;;
18172;SDS011;9211;48.818;9.312;2023-02-10T01:59:53;64.47;;;29.67;;
18172;SDS011;9211;48.818;9.312;2023-02-10T02:02:21;58.95;;;28.73;;
18172;SDS011;9211;48.818;9.312;2023-02-10T02:04:51;62.65;;;30.13;;
18172;SDS011;9211;48.818;9.312;2023-02-10T02:07:20;64.80;;;30.23;;
18172;SDS011;9211;48.818;9.312;2023-02-10T02:09:50;62.80;;;29.05;;
18172;SDS011;9211;48.818;9.312;2023-02-10T02:12:20;61.30;;;29.43;;
18172;SDS011;9211;48.818;9.312;2023-02-10T02:14:55;62.78;;;28.17;;
18172;SDS011;9211;48.818;9.312;2023-02-10T02:17:28;60.45;;;29.02;;
18172;SDS011;9211;48.818;9.312;2023-02-10T02:23:10;62.03;;;28.83;;
18172;SDS011;9211;48.818;9.312;2023-02-10T02:25:58;58.67;;;28.00;;
18172;SDS011;9211;48.818;9.312;2023-02-10T02:28:42;60.92;;;28.50;;
18172;SDS011;9211;48.818;9.312;2023-02-10T02:34:20;58.70;;;27.73;;
18172;SDS011;9211;48.818;9.312;2023-02-10T02:36:54;61.22;;;28.17;;
18172;SDS011;9211;48.818;9.312;2023-02-10T02:39:26;58.47;;;27.45;;
18172;SDS011;9211;48.818;9.312;2023-02-10T02:44:46;62.93;;;27.67;;
18172;SDS011;9211;48.818;9.312;2023-02-10T02:47:25;62.25;;;28.23;;
18172;SDS011;9211;48.818;9.312;2023-02-10T02:50:03;57.28;;;27.05;;
18172;SDS011;9211;48.818;9.312;2023-02-10T02:52:44;58.35;;;27.73;;
18172;SDS011;9211;48.818;9.312;2023-02-10T02:55:25;57.53;;;27.27;;
18172;SDS011;9211;48.818;9.312;2023-02-10T02:58:00;64.30;;;27.75;;
18172;SDS011;9211;48.818;9.312;2023-02-10T03:03:16;60.47;;;28.50;;
18172;SDS011;9211;48.818;9.312;2023-02-10T03:05:43;61.37;;;27.27;;
18172;SDS011;9211;48.818;9.312;2023-02-10T03:08:10;60.55;;;27.67;;
18172;SDS011;9211;48.818;9.312;2023-02-10T03:10:37;57.00;;;26.67;;
18172;SDS011;9211;48.818;9.312;2023-02-10T03:13:04;58.47;;;27.42;;
18172;SDS011;9211;48.818;9.312;2023-02-10T03:15:31;61.10;;;28.13;;
18172;SDS011;9211;48.818;9.312;2023-02-10T03:17:58;59.83;;;28.20;;
18172;SDS011;9211;48.818;9.312;2023-02-10T03:20:26;58.33;;;27.90;;
18172;SDS011;9211;48.818;9.312;2023-02-10T03:22:53;58.63;;;28.48;;
18172;SDS011;9211;48.818;9.312;2023-02-10T03:25:20;56.60;;;27.20;;
18172;SDS011;9211;48.818;9.312;2023-02-10T03:27:47;60.25;;;28.02;;
18172;SDS011;9211;48.818;9.312;2023-02-10T03:30:14;59.53;;;27.67;;
18172;SDS011;9211;48.818;9.312;2023-02-10T03:32:41;60.08;;;27.55;;
18172;SDS011;9211;48.818;9.312;2023-02-10T03:35:08;57.85;;;27.45;;
18172;SDS011;9211;48.818;9.312;2023-02-10T03:37:36;59.85;;;28.20;;
18172;SDS011;9211;48.818;9.312;2023-02-10T03:40:03;58.63;;;27.67;;
18172;SDS011;9211;48.818;9.312;2023-02-10T03:42:31;61.13;;;28.57;;
18172;SDS011;9211;48.818;9.312;2023-02-10T03:44:57;58.00;;;27.38;;
18172;SDS011;9211;48.818;9.312;2023-02-10T03:47:25;63.13;;;28.13;;
18172;SDS011;9211;48.818;9.312;2023-02-10T03:49:52;62.50;;;27.42;;
18172;SDS011;9211;48.818;9.312;2023-02-10T03:52:19;60.13;;;28.00;;
18172;SDS011;9211;48.818;9.312;2023-02-10T03:54:47;61.95;;;28.38;;
18172;SDS011;9211;48.818;9.312;2023-02-10T03:57:14;57.40;;;27.47;;
18172;SDS011;9211;48.818;9.312;2023-02-10T03:59:41;58.97;;;27.77;;
18172;SDS011;9211;48.818;9.312;2023-02-10T04:02:08;60.55;;;27.77;;
18172;SDS011;9211;48.818;9.312;2023-02-10T04:04:35;59.75;;;28.00;;
18172;SDS011;9211;48.818;9.312;2023-02-10T04:07:02;57.83;;;27.52;;
18172;SDS011;9211;48.818;9.312;2023-02-10T04:09:29;60.10;;;26.98;;
18172;SDS011;9211;48.818;9.312;2023-02-10T04:11:58;61.22;;;27.85;;
18172;SDS011;9211;48.818;9.312;2023-02-10T04:14:25;56.58;;;27.15;;
18172;SDS011;9211;48.818;9.312;2023-02-10T04:16:51;56.85;;;26.52;;
18172;SDS011;9211;48.818;9.312;2023-02-10T04:19:18;61.38;;;27.58;;
18172;SDS011;9211;48.818;9.312;2023-02-10T04:21:45;60.00;;;27.60;;
18172;SDS011;9211;48.818;9.312;2023-02-10T04:24:13;60.40;;;27.88;;
18172;SDS011;9211;48.818;9.312;2023-02-10T04:26:40;58.78;;;27.35;;
18172;SDS011;9211;48.818;9.312;2023-02-10T04:29:08;57.40;;;26.92;;
18172;SDS011;9211;48.818;9.312;2023-02-10T04:31:35;59.03;;;26.63;;
18172;SDS011;9211;48.818;9.312;2023-02-10T04:34:02;59.77;;;27.70;;
18172;SDS011;9211;48.818;9.312;2023-02-10T04:36:29;54.15;;;26.80;;
18172;SDS011;9211;48.818;9.312;2023-02-10T04:38:56;58.33;;;27.17;;
18172;SDS011;9211;48.818;9.312;2023-02-10T04:41:23;55.85;;;27.17;;
18172;SDS011;9211;48.818;9.312;2023-02-10T04:43:50;59.72;;;27.42;;
18172;SDS011;9211;48.818;9.312;2023-02-10T04:46:18;55.05;;;26.33;;
18172;SDS011;9211;48.818;9.312;2023-02-10T04:48:45;54.90;;;26.90;;
18172;SDS011;9211;48.818;9.312;2023-02-10T04:51:12;56.37;;;26.93;;
18172;SDS011;9211;48.818;9.312;2023-02-10T04:53:40;58.03;;;27.88;;
18172;SDS011;9211;48.818;9.312;2023-02-10T04:56:08;57.83;;;27.00;;
18172;SDS011;9211;48.818;9.312;2023-02-10T04:58:35;55.33;;;26.40;;
18172;SDS011;9211;48.818;9.312;2023-02-10T05:01:02;56.50;;;26.45;;
18172;SDS011;9211;48.818;9.312;2023-02-10T05:03:31;59.15;;;26.95;;
18172;SDS011;9211;48.818;9.312;2023-02-10T05:05:58;58.15;;;26.50;;
18172;SDS011;9211;48.818;9.312;2023-02-10T05:08:25;54.63;;;26.85;;
18172;SDS011;9211;48.818;9.312;2023-02-10T05:10:52;56.85;;;26.20;;
18172;SDS011;9211;48.818;9.312;2023-02-10T05:13:19;61.35;;;27.60;;
18172;SDS011;9211;48.818;9.312;2023-02-10T05:15:46;59.08;;;27.05;;
18172;SDS011;9211;48.818;9.312;2023-02-10T05:18:13;56.42;;;27.33;;
18172;SDS011;9211;48.818;9.312;2023-02-10T05:20:42;58.38;;;27.35;;
18172;SDS011;9211;48.818;9.312;2023-02-10T05:23:09;58.25;;;27.73;;
18172;SDS011;9211;48.818;9.312;2023-02-10T05:25:36;58.80;;;27.07;;
18172;SDS011;9211;48.818;9.312;2023-02-10T05:28:02;59.20;;;26.65;;
18172;SDS011;9211;48.818;9.312;2023-02-10T05:30:29;55.53;;;26.00;;
18172;SDS011;9211;48.818;9.312;2023-02-10T05:32:56;55.50;;;26.42;;
18172;SDS011;9211;48.818;9.312;2023-02-10T05:35:23;60.05;;;26.83;;
18172;SDS011;9211;48.818;9.312;2023-02-10T05:37:52;58.90;;;26.50;;
18172;SDS011;9211;48.818;9.312;2023-02-10T05:40:19;58.08;;;26.83;;
18172;SDS011;9211;48.818;9.312;2023-02-10T05:42:45;56.97;;;26.83;;
18172;SDS011;9211;48.818;9.312;2023-02-10T05:45:12;54.90;;;26.10;;
18172;SDS011;9211;48.818;9.312;2023-02-10T05:47:39;56.60;;;26.40;;
18172;SDS011;9211;48.818;9.312;2023-02-10T05:50:07;56.55;;;26.83;;
18172;SDS011;9211;48.818;9.312;2023-02-10T05:52:34;58.53;;;26.30;;
18172;SDS011;9211;48.818;9.312;2023-02-10T05:55:02;59.40;;;26.92;;
18172;SDS011;9211;48.818;9.312;2023-02-10T05:57:29;56.15;;;26.65;;
18172;SDS011;9211;48.818;9.312;2023-02-10T05:59:56;61.40;;;27.00;;
18172;SDS011;9211;48.818;9.312;2023-02-10T06:02:23;60.55;;;27.13;;
18172;SDS011;9211;48.818;9.312;2023-02-10T06:04:51;57.47;;;27.55;;
18172;SDS011;9211;48.818;9.312;2023-02-10T06:07:17;55.45;;;25.98;;
18172;SDS011;9211;48.818;9.312;2023-02-10T06:09:44;55.00;;;26.90;;
18172;SDS011;9211;48.818;9.312;2023-02-10T06:12:13;62.40;;;27.53;;
18172;SDS011;9211;48.818;9.312;2023-02-10T06:14:40;58.80;;;27.45;;
18172;SDS011;9211;48.818;9.312;2023-02-10T06:17:07;54.92;;;27.00;;
18172;SDS011;9211;48.818;9.312;2023-02-10T06:19:34;55.08;;;26.60;;
18172;SDS011;9211;48.818;9.312;2023-02-10T06:22:02;60.05;;;27.27;;
18172;SDS011;9211;48.818;9.312;2023-02-10T06:24:29;60.83;;;27.33;;
18172;SDS011;9211;48.818;9.312;2023-02-10T06:26:56;55.17;;;26.40;;
18172;SDS011;9211;48.818;9.312;2023-02-10T06:29:25;58.63;;;26.95;;
18172;SDS011;9211;48.818;9.312;2023-02-10T06:31:52;62.80;;;27.88;;
18172;SDS011;9211;48.818;9.312;2023-02-10T06:34:19;59.55;;;27.10;;
18172;SDS011;9211;48.818;9.312;2023-02-10T06:36:46;55.38;;;26.55;;
18172;SDS011;9211;48.818;9.312;2023-02-10T06:39:13;61.53;;;28.05;;
18172;SDS011;9211;48.818;9.312;2023-02-10T06:41:39;56.70;;;26.65;;
18172;SDS011;9211;48.818;9.312;2023-02-10T06:44:07;58.63;;;28.15;;
18172;SDS011;9211;48.818;9.312;2023-02-10T06:46:35;59.50;;;27.52;;
18172;SDS011;9211;48.818;9.312;2023-02-10T06:49:02;54.77;;;26.73;;
18172;SDS011;9211;48.818;9.312;2023-02-10T06:51:29;59.42;;;26.58;;
18172;SDS011;9211;48.818;9.312;2023-02-10T06:53:56;57.40;;;27.40;;
18172;SDS011;9211;48.818;9.312;2023-02-10T06:56:23;58.15;;;27.42;;
18172;SDS011;9211;48.818;9.312;2023-02-10T06:58:50;59.20;;;28.27;;
18172;SDS011;9211;48.818;9.312;2023-02-10T07:01:17;63.10;;;29.15;;
18172;SDS011;9211;48.818;9.312;2023-02-10T07:03:46;59.80;;;28.08;;
18172;SDS011;9211;48.818;9.312;2023-02-10T07:06:13;62.08;;;28.65;;
18172;SDS011;9211;48.818;9.312;2023-02-10T07:08:43;64.35;;;28.88;;
18172;SDS011;9211;48.818;9.312;2023-02-10T07:11:10;61.38;;;28.63;;
18172;SDS011;9211;48.818;9.312;2023-02-10T07:13:37;61.17;;;28.45;;
18172;SDS011;9211;48.818;9.312;2023-02-10T07:16:04;57.38;;;26.98;;
18172;SDS011;9211;48.818;9.312;2023-02-10T07:18:31;56.60;;;26.98;;
18172;SDS011;9211;48.818;9.312;2023-02-10T07:21:00;58.83;;;27.40;;
18172;SDS011;9211;48.818;9.312;2023-02-10T07:23:27;56.85;;;28.65;;
18172;SDS011;9211;48.818;9.312;2023-02-10T07:25:54;59.65;;;28.33;;
18172;SDS011;9211;48.818;9.312;2023-02-10T07:28:20;59.40;;;29.25;;
18172;SDS011;9211;48.818;9.312;2023-02-10T07:30:47;61.85;;;28.95;;
18172;SDS011;9211;48.818;9.312;2023-02-10T07:33:14;59.22;;;29.27;;
18172;SDS011;9211;48.818;9.312;2023-02-10T07:35:41;58.80;;;28.07;;
18172;SDS011;9211;48.818;9.312;2023-02-10T07:38:10;61.00;;;29.40;;
18172;SDS011;9211;48.818;9.312;2023-02-10T07:40:36;62.95;;;29.85;;
18172;SDS011;9211;48.818;9.312;2023-02-10T07:43:03;64.93;;;29.20;;
18172;SDS011;9211;48.818;9.312;2023-02-10T07:45:39;62.20;;;29.50;;
18172;SDS011;9211;48.818;9.312;2023-02-10T07:48:06;63.22;;;29.40;;
18172;SDS011;9211;48.818;9.312;2023-02-10T07:50:33;60.00;;;28.55;;
18172;SDS011;9211;48.818;9.312;2023-02-10T07:53:00;63.90;;;28.80;;
18172;SDS011;9211;48.818;9.312;2023-02-10T07:55:28;59.97;;;28.60;;
18172;SDS011;9211;48.818;9.312;2023-02-10T07:57:55;62.33;;;28.97;;
18172;SDS011;9211;48.818;9.312;2023-02-10T08:00:22;60.88;;;29.15;;
18172;SDS011;9211;48.818;9.312;2023-02-10T08:02:49;60.55;;;28.75;;
18172;SDS011;9211;48.818;9.312;2023-02-10T08:05:16;64.75;;;29.20;;
18172;SDS011;9211;48.818;9.312;2023-02-10T08:07:43;65.10;;;29.67;;
18172;SDS011;9211;48.818;9.312;2023-02-10T08:10:10;66.45;;;29.80;;
18172;SDS011;9211;48.818;9.312;2023-02-10T08:12:38;60.90;;;28.75;;
18172;SDS011;9211;48.818;9.312;2023-02-10T08:15:06;62.03;;;30.37;;
18172;SDS011;9211;48.818;9.312;2023-02-10T08:17:33;61.85;;;29.73;;
18172;SDS011;9211;48.818;9.312;2023-02-10T08:20:02;61.47;;;29.77;;
18172;SDS011;9211;48.818;9.312;2023-02-10T08:22:29;64.90;;;30.60;;
18172;SDS011;9211;48.818;9.312;2023-02-10T08:24:56;65.07;;;30.40;;
18172;SDS011;9211;48.818;9.312;2023-02-10T08:27:24;65.93;;;30.25;;
18172;SDS011;9211;48.818;9.312;2023-02-10T08:29:53;61.10;;;29.75;;
18172;SDS011;9211;48.818;9.312;2023-02-10T08:32:20;62.05;;;30.15;;
18172;SDS011;9211;48.818;9.312;2023-02-10T08:34:47;61.78;;;30.08;;
18172;SDS011;9211;48.818;9.312;2023-02-10T08:37:15;62.80;;;29.55;;
18172;SDS011;9211;48.818;9.312;2023-02-10T08:39:43;59.38;;;29.08;;
18172;SDS011;9211;48.818;9.312;2023-02-10T08:42:10;60.88;;;28.77;;
18172;SDS011;9211;48.818;9.312;2023-02-10T08:44:37;59.40;;;29.47;;
18172;SDS011;9211;48.818;9.312;2023-02-10T08:47:06;62.75;;;30.27;;
18172;SDS011;9211;48.818;9.312;2023-02-10T08:49:36;61.03;;;29.58;;
18172;SDS011;9211;48.818;9.312;2023-02-10T08:52:03;62.13;;;29.67;;
18172;SDS011;9211;48.818;9.312;2023-02-10T08:54:30;63.03;;;30.40;;
18172;SDS011;9211;48.818;9.312;2023-02-10T08:56:57;58.17;;;28.83;;
18172;SDS011;9211;48.818;9.312;2023-02-10T08:59:24;63.55;;;30.48;;
18172;SDS011;9211;48.818;9.312;2023-02-10T09:01:52;63.72;;;30.52;;
18172;SDS011;9211;48.818;9.312;2023-02-10T09:04:20;67.50;;;30.83;;
18172;SDS011;9211;48.818;9.312;2023-02-10T09:06:47;66.05;;;31.83;;
18172;SDS011;9211;48.818;9.312;2023-02-10T09:09:15;59.55;;;29.67;;
18172;SDS011;9211;48.818;9.312;2023-02-10T09:11:44;63.83;;;29.77;;
18172;SDS011;9211;48.818;9.312;2023-02-10T09:14:12;60.72;;;29.80;;
18172;SDS011;9211;48.818;9.312;2023-02-10T09:16:39;60.67;;;30.42;;
18172;SDS011;9211;48.818;9.312;2023-02-10T09:19:06;60.53;;;30.17;;
18172;SDS011;9211;48.818;9.312;2023-02-10T09:21:34;62.65;;;30.30;;
18172;SDS011;9211;48.818;9.312;2023-02-10T09:24:01;62.25;;;30.17;;
18172;SDS011;9211;48.818;9.312;2023-02-10T09:26:28;60.65;;;29.58;;
18172;SDS011;9211;48.818;9.312;2023-02-10T09:28:55;57.20;;;29.50;;
18172;SDS011;9211;48.818;9.312;2023-02-10T09:31:22;60.63;;;30.85;;
18172;SDS011;9211;48.818;9.312;2023-02-10T09:33:50;62.05;;;29.02;;
18172;SDS011;9211;48.818;9.312;2023-02-10T09:36:17;59.58;;;29.80;;
18172;SDS011;9211;48.818;9.312;2023-02-10T09:38:47;57.20;;;28.40;;
18172;SDS011;9211;48.818;9.312;2023-02-10T09:41:16;58.67;;;29.25;;
18172;SDS011;9211;48.818;9.312;2023-02-10T09:43:59;56.63;;;28.40;;
18172;SDS011;9211;48.818;9.312;2023-02-10T09:46:38;58.60;;;28.42;;
18172;SDS011;9211;48.818;9.312;2023-02-10T09:49:27;59.78;;;30.40;;
18172;SDS011;9211;48.818;9.312;2023-02-10T09:52:15;61.70;;;29.50;;
18172;SDS011;9211;48.818;9.312;2023-02-10T09:54:50;65.60;;;29.42;;
18172;SDS011;9211;48.818;9.312;2023-02-10T09:57:18;57.90;;;28.35;;
18172;SDS011;9211;48.818;9.312;2023-02-10T09:59:48;54.85;;;27.73;;
18172;SDS011;9211;48.818;9.312;2023-02-10T10:02:19;56.73;;;28.17;;
18172;SDS011;9211;48.818;9.312;2023-02-10T10:04:50;57.25;;;27.48;;
18172;SDS011;9211;48.818;9.312;2023-02-10T10:07:20;61.25;;;29.55;;
18172;SDS011;9211;48.818;9.312;2023-02-10T10:09:54;54.63;;;27.60;;
18172;SDS011;9211;48.818;9.312;2023-02-10T10:12:26;60.65;;;27.85;;
18172;SDS011;9211;48.818;9.312;2023-02-10T10:14:54;62.15;;;31.15;;
18172;SDS011;9211;48.818;9.312;2023-02-10T10:17:32;59.63;;;29.08;;
18172;SDS011;9211;48.818;9.312;2023-02-10T10:20:19;56.90;;;28.20;;
18172;SDS011;9211;48.818;9.312;2023-02-10T10:22:56;52.63;;;27.33;;
18172;SDS011;9211;48.818;9.312;2023-02-10T10:25:43;55.27;;;26.43;;
18172;SDS011;9211;48.818;9.312;2023-02-10T10:28:22;52.38;;;26.08;;
18172;SDS011;9211;48.818;9.312;2023-02-10T10:30:58;50.80;;;25.50;;
18172;SDS011;9211;48.818;9.312;2023-02-10T10:33:29;51.47;;;25.95;;
18172;SDS011;9211;48.818;9.312;2023-02-10T10:36:01;50.72;;;24.88;;
18172;SDS011;9211;48.818;9.312;2023-02-10T10:38:30;48.92;;;25.17;;
18172;SDS011;9211;48.818;9.312;2023-02-10T10:41:00;54.67;;;26.63;;
18172;SDS011;9211;48.818;9.312;2023-02-10T10:43:31;49.55;;;25.67;;
18172;SDS011;9211;48.818;9.312;2023-02-10T10:46:10;47.33;;;24.80;;
18172;SDS011;9211;48.818;9.312;2023-02-10T10:48:41;48.17;;;25.33;;
18172;SDS011;9211;48.818;9.312;2023-02-10T10:51:08;47.80;;;25.08;;
18172;SDS011;9211;48.818;9.312;2023-02-10T10:53:37;48.38;;;24.70;;
18172;SDS011;9211;48.818;9.312;2023-02-10T10:56:10;46.92;;;23.77;;
18172;SDS011;9211;48.818;9.312;2023-02-10T10:58:41;48.95;;;24.92;;
18172;SDS011;9211;48.818;9.312;2023-02-10T11:01:10;48.80;;;24.63;;
18172;SDS011;9211;48.818;9.312;2023-02-10T11:03:38;49.92;;;25.48;;
18172;SDS011;9211;48.818;9.312;2023-02-10T11:06:07;46.55;;;23.65;;
18172;SDS011;9211;48.818;9.312;2023-02-10T11:08:36;43.95;;;23.15;;
18172;SDS011;9211;48.818;9.312;2023-02-10T11:11:08;44.97;;;23.35;;
18172;SDS011;9211;48.818;9.312;2023-02-10T11:13:38;43.05;;;22.10;;
18172;SDS011;9211;48.818;9.312;2023-02-10T11:16:08;43.53;;;21.75;;
18172;SDS011;9211;48.818;9.312;2023-02-10T11:18:37;43.00;;;21.10;;
18172;SDS011;9211;48.818;9.312;2023-02-10T11:21:05;38.80;;;20.65;;
18172;SDS011;9211;48.818;9.312;2023-02-10T11:23:35;39.40;;;20.75;;
18172;SDS011;9211;48.818;9.312;2023-02-10T11:26:17;43.60;;;21.05;;
18172;SDS011;9211;48.818;9.312;2023-02-10T11:28:46;39.33;;;20.73;;
18172;SDS011;9211;48.818;9.312;2023-02-10T11:31:19;40.22;;;21.27;;
18172;SDS011;9211;48.818;9.312;2023-02-10T11:33:54;42.15;;;21.75;;
18172;SDS011;9211;48.818;9.312;2023-02-10T11:36:28;41.75;;;21.25;;
18172;SDS011;9211;48.818;9.312;2023-02-10T11:38:59;38.73;;;19.63;;
18172;SDS011;9211;48.818;9.312;2023-02-10T11:41:30;40.77;;;20.10;;
18172;SDS011;9211;48.818;9.312;2023-02-10T11:43:59;38.00;;;20.58;;
18172;SDS011;9211;48.818;9.312;2023-02-10T11:46:28;35.25;;;19.40;;
18172;SDS011;9211;48.818;9.312;2023-02-10T11:48:58;37.40;;;19.33;;
18172;SDS011;9211;48.818;9.312;2023-02-10T11:51:26;41.33;;;20.13;;
18172;SDS011;9211;48.818;9.312;2023-02-10T11:53:54;41.47;;;20.40;;
18172;SDS011;9211;48.818;9.312;2023-02-10T11:56:23;39.92;;;19.10;;
18172;SDS011;9211;48.818;9.312;2023-02-10T11:59:09;37.22;;;19.08;;
18172;SDS011;9211;48.818;9.312;2023-02-10T12:01:50;36.00;;;18.48;;
18172;SDS011;9211;48.818;9.312;2023-02-10T12:04:28;32.60;;;17.40;;
18172;SDS011;9211;48.818;9.312;2023-02-10T12:07:17;34.60;;;18.20;;
18172;SDS011;9211;48.818;9.312;2023-02-10T12:09:52;36.30;;;19.05;;
18172;SDS011;9211;48.818;9.312;2023-02-10T12:12:23;36.83;;;19.67;;
18172;SDS011;9211;48.818;9.312;2023-02-10T12:15:01;35.92;;;18.27;;
18172;SDS011;9211;48.818;9.312;2023-02-10T12:17:36;35.22;;;18.58;;
18172;SDS011;9211;48.818;9.312;2023-02-10T12:20:17;33.85;;;18.30;;
18172;SDS011;9211;48.818;9.312;2023-02-10T12:23:05;35.45;;;18.15;;
18172;SDS011;9211;48.818;9.312;2023-02-10T12:25:50;32.85;;;18.05;;
18172;SDS011;9211;48.818;9.312;2023-02-10T12:28:24;38.23;;;19.00;;
18172;SDS011;9211;48.818;9.312;2023-02-10T12:31:01;33.28;;;18.05;;
18172;SDS011;9211;48.818;9.312;2023-02-10T12:33:42;36.95;;;18.65;;
18172;SDS011;9211;48.818;9.312;2023-02-10T12:36:19;37.10;;;18.35;;
18172;SDS011;9211;48.818;9.312;2023-02-10T12:38:55;36.03;;;19.13;;
18172;SDS011;9211;48.818;9.312;2023-02-10T12:41:26;32.70;;;18.40;;
18172;SDS011;9211;48.818;9.312;2023-02-10T12:46:56;34.73;;;18.20;;
18172;SDS011;9211;48.818;9.312;2023-02-10T12:49:36;35.13;;;18.53;;
18172;SDS011;9211;48.818;9.312;2023-02-10T12:52:15;34.30;;;18.13;;
18172;SDS011;9211;48.818;9.312;2023-02-10T12:54:48;36.03;;;18.77;;
18172;SDS011;9211;48.818;9.312;2023-02-10T12:57:19;34.67;;;18.23;;
18172;SDS011;9211;48.818;9.312;2023-02-10T12:59:52;39.25;;;18.88;;
18172;SDS011;9211;48.818;9.312;2023-02-10T13:02:26;40.80;;;19.15;;
18172;SDS011;9211;48.818;9.312;2023-02-10T13:05:00;40.40;;;20.27;;
18172;SDS011;9211;48.818;9.312;2023-02-10T13:07:35;34.40;;;18.52;;
18172;SDS011;9211;48.818;9.312;2023-02-10T13:10:09;34.10;;;17.80;;
18172;SDS011;9211;48.818;9.312;2023-02-10T13:12:47;36.63;;;19.05;;
18172;SDS011;9211;48.818;9.312;2023-02-10T13:15:17;35.30;;;18.42;;
18172;SDS011;9211;48.818;9.312;2023-02-10T13:17:51;34.05;;;18.25;;
18172;SDS011;9211;48.818;9.312;2023-02-10T13:20:22;34.83;;;18.45;;
18172;SDS011;9211;48.818;9.312;2023-02-10T13:22:58;35.17;;;19.27;;
18172;SDS011;9211;48.818;9.312;2023-02-10T13:25:34;33.83;;;18.48;;
18172;SDS011;9211;48.818;9.312;2023-02-10T13:28:14;31.27;;;17.38;;
18172;SDS011;9211;48.818;9.312;2023-02-10T13:30:50;35.88;;;19.05;;
18172;SDS011;9211;48.818;9.312;2023-02-10T13:33:38;35.15;;;17.83;;
18172;SDS011;9211;48.818;9.312;2023-02-10T13:36:13;33.00;;;18.40;;
18172;SDS011;9211;48.818;9.312;2023-02-10T13:38:42;34.13;;;17.85;;
18172;SDS011;9211;48.818;9.312;2023-02-10T13:41:22;32.30;;;17.15;;
18172;SDS011;9211;48.818;9.312;2023-02-10T13:44:18;34.50;;;18.23;;
18172;SDS011;9211;48.818;9.312;2023-02-10T13:46:51;33.25;;;18.10;;
18172;SDS011;9211;48.818;9.312;2023-02-10T13:49:23;34.05;;;18.45;;
18172;SDS011;9211;48.818;9.312;2023-02-10T13:51:58;39.05;;;19.20;;
18172;SDS011;9211;48.818;9.312;2023-02-10T13:54:29;36.65;;;19.60;;
18172;SDS011;9211;48.818;9.312;2023-02-10T13:56:58;36.47;;;19.20;;
18172;SDS011;9211;48.818;9.312;2023-02-10T13:59:34;36.83;;;19.65;;
18172;SDS011;9211;48.818;9.312;2023-02-10T14:02:11;40.92;;;20.73;;
18172;SDS011;9211;48.818;9.312;2023-02-10T14:04:44;35.47;;;19.35;;
18172;SDS011;9211;48.818;9.312;2023-02-10T14:07:13;38.50;;;20.05;;
18172;SDS011;9211;48.818;9.312;2023-02-10T14:09:42;39.88;;;20.80;;
18172;SDS011;9211;48.818;9.312;2023-02-10T14:14:54;35.58;;;18.55;;
18172;SDS011;9211;48.818;9.312;2023-02-10T14:17:21;38.67;;;20.25;;
18172;SDS011;9211;48.818;9.312;2023-02-10T14:19:56;33.50;;;18.95;;
18172;SDS011;9211;48.818;9.312;2023-02-10T14:22:26;38.38;;;19.75;;
18172;SDS011;9211;48.818;9.312;2023-02-10T14:24:57;35.90;;;18.90;;
18172;SDS011;9211;48.818;9.312;2023-02-10T14:27:29;35.10;;;18.60;;
18172;SDS011;9211;48.818;9.312;2023-02-10T14:29:58;34.47;;;18.25;;
18172;SDS011;9211;48.818;9.312;2023-02-10T14:32:29;33.97;;;18.20;;
18172;SDS011;9211;48.818;9.312;2023-02-10T14:34:59;37.45;;;19.17;;
18172;SDS011;9211;48.818;9.312;2023-02-10T14:37:27;35.80;;;19.08;;
18172;SDS011;9211;48.818;9.312;2023-02-10T14:39:55;38.55;;;19.15;;
18172;SDS011;9211;48.818;9.312;2023-02-10T14:42:24;36.33;;;19.17;;
18172;SDS011;9211;48.818;9.312;2023-02-10T14:44:52;35.53;;;18.57;;
18172;SDS011;9211;48.818;9.312;2023-02-10T14:47:22;32.60;;;17.53;;
18172;SDS011;9211;48.818;9.312;2023-02-10T14:49:53;32.90;;;17.85;;
18172;SDS011;9211;48.818;9.312;2023-02-10T14:52:24;33.93;;;18.77;;
18172;SDS011;9211;48.818;9.312;2023-02-10T14:54:52;33.85;;;19.05;;
18172;SDS011;9211;48.818;9.312;2023-02-10T14:57:20;34.13;;;19.50;;
18172;SDS011;9211;48.818;9.312;2023-02-10T14:59:53;33.75;;;18.35;;
18172;SDS011;9211;48.818;9.312;2023-02-10T15:02:22;33.47;;;17.75;;
18172;SDS011;9211;48.818;9.312;2023-02-10T15:04:51;34.55;;;18.15;;
18172;SDS011;9211;48.818;9.312;2023-02-10T15:07:21;34.75;;;17.98;;
18172;SDS011;9211;48.818;9.312;2023-02-10T15:09:51;33.83;;;17.67;;